createdAt,value
2022-10-25T00:01:43.019Z,21.58
2022-10-25T00:04:11.354Z,20.98
2022-10-25T00:06:40.729Z,22.45
2022-10-25T00:09:08.906Z,21.95
2022-10-25T00:11:36.979Z,24.42
2022-10-25T00:14:07.475Z,27.25
2022-10-25T00:16:37.812Z,22.25
2022-10-25T00:19:06.487Z,18.58
2022-10-25T00:21:34.658Z,19.52
2022-10-25T00:24:04.881Z,25.10
2022-10-25T00:26:32.884Z,24.30
2022-10-25T00:29:01.961Z,22.08
2022-10-25T00:31:29.958Z,22.67
2022-10-25T00:33:57.949Z,21.58
2022-10-25T00:36:27.645Z,23.73
2022-10-25T00:38:58.170Z,27.02
2022-10-25T00:41:29.523Z,21.30
2022-10-25T00:44:18.374Z,24.70
2022-10-25T00:46:46.815Z,26.45
2022-10-25T00:49:18.837Z,26.38
2022-10-25T00:51:50.768Z,25.33
2022-10-25T00:54:24.353Z,23.50
2022-10-25T00:56:55.877Z,26.67
2022-10-25T00:59:28.122Z,25.63
2022-10-25T01:01:57.605Z,29.63
2022-10-25T01:04:29.982Z,26.38
2022-10-25T01:06:58.696Z,25.80
2022-10-25T01:09:29.467Z,32.22
2022-10-25T01:11:59.187Z,26.40
2022-10-25T01:14:28.276Z,25.38
2022-10-25T01:17:06.127Z,27.95
2022-10-25T01:19:48.044Z,29.27
2022-10-25T01:22:24.033Z,29.63
2022-10-25T01:25:26.372Z,31.58
2022-10-25T01:28:07.834Z,34.40
2022-10-25T01:31:04.870Z,33.03
2022-10-25T01:33:38.324Z,30.23
2022-10-25T01:36:15.428Z,29.08
2022-10-25T01:38:48.970Z,30.95
2022-10-25T01:41:24.166Z,29.30
2022-10-25T01:44:07.474Z,33.03
2022-10-25T01:46:44.499Z,32.38
2022-10-25T01:49:17.576Z,31.40
2022-10-25T01:51:45.632Z,31.85
2022-10-25T01:54:19.725Z,35.67
2022-10-25T01:56:56.593Z,32.92
2022-10-25T01:59:40.517Z,35.67
2022-10-25T02:02:16.522Z,37.17
2022-10-25T02:04:51.465Z,33.90
2022-10-25T02:07:25.876Z,39.60
2022-10-25T02:10:03.870Z,38.42
2022-10-25T02:12:38.198Z,40.38
2022-10-25T02:15:11.147Z,36.78
2022-10-25T02:17:45.882Z,34.25
2022-10-25T02:20:18.533Z,36.08
2022-10-25T02:22:47.798Z,35.42
2022-10-25T02:25:16.910Z,32.20
2022-10-25T02:27:46.544Z,38.65
2022-10-25T02:30:14.886Z,40.20
2022-10-25T02:32:44.362Z,32.72
2022-10-25T02:35:15.647Z,33.90
2022-10-25T02:37:44.157Z,34.40
2022-10-25T02:40:13.353Z,34.72
2022-10-25T02:42:41.541Z,37.20
2022-10-25T02:45:10.462Z,35.55
2022-10-25T02:47:38.694Z,29.30
2022-10-25T02:50:08.689Z,36.90
2022-10-25T02:52:36.756Z,31.25
2022-10-25T02:55:05.318Z,31.55
2022-10-25T02:57:34.744Z,35.97
2022-10-25T03:00:02.890Z,33.88
2022-10-25T03:02:30.996Z,34.45
2022-10-25T03:04:58.969Z,39.15
2022-10-25T03:07:28.430Z,33.88
2022-10-25T03:09:56.381Z,33.63
2022-10-25T03:12:24.468Z,33.90
2022-10-25T03:14:52.499Z,34.90
2022-10-25T03:17:20.519Z,31.48
2022-10-25T03:19:48.498Z,35.05
2022-10-25T03:22:16.518Z,32.40
2022-10-25T03:24:45.950Z,36.60
2022-10-25T03:27:13.961Z,30.92
2022-10-25T03:29:41.930Z,31.23
2022-10-25T03:32:09.942Z,35.30
2022-10-25T03:34:37.911Z,30.60
2022-10-25T03:37:05.872Z,30.85
2022-10-25T03:39:34.103Z,37.80
2022-10-25T03:42:03.430Z,32.45
2022-10-25T03:44:31.450Z,35.08
2022-10-25T03:46:59.444Z,29.85
2022-10-25T03:49:27.458Z,32.05
2022-10-25T03:51:57.917Z,34.67
2022-10-25T03:54:29.320Z,29.90
2022-10-25T03:56:57.592Z,33.42
2022-10-25T03:59:26.981Z,31.83
2022-10-25T04:01:55.245Z,34.67
2022-10-25T04:04:23.291Z,32.30
2022-10-25T04:06:51.325Z,30.92
2022-10-25T04:09:19.510Z,29.02
2022-10-25T04:11:47.529Z,28.10
2022-10-25T04:14:15.583Z,32.22
2022-10-25T04:16:44.969Z,33.00
2022-10-25T04:19:13.058Z,25.90
2022-10-25T04:21:41.270Z,29.25
2022-10-25T04:24:09.798Z,29.73
2022-10-25T04:26:37.864Z,28.98
2022-10-25T04:29:06.966Z,27.10
2022-10-25T04:31:35.048Z,31.73
2022-10-25T04:34:04.402Z,30.67
2022-10-25T04:36:32.888Z,28.23
2022-10-25T04:39:00.923Z,32.33
2022-10-25T04:41:28.934Z,28.63
2022-10-25T04:43:56.957Z,30.33
2022-10-25T04:46:25.037Z,25.27
2022-10-25T04:48:53.046Z,31.80
2022-10-25T04:51:22.405Z,32.92
2022-10-25T04:53:50.422Z,30.08
2022-10-25T04:56:18.414Z,29.33
2022-10-25T04:58:46.438Z,25.08
2022-10-25T05:01:16.027Z,29.33
2022-10-25T05:03:44.297Z,28.92
2022-10-25T05:06:14.496Z,29.75
2022-10-25T05:08:46.106Z,34.15
2022-10-25T05:11:15.860Z,30.85
2022-10-25T05:13:44.966Z,30.10
2022-10-25T05:16:17.261Z,29.70
2022-10-25T05:18:46.361Z,25.48
2022-10-25T05:21:15.661Z,32.63
2022-10-25T05:23:45.540Z,35.20
2022-10-25T05:26:15.523Z,28.67
2022-10-25T05:28:45.133Z,30.17
2022-10-25T05:31:15.288Z,28.45
2022-10-25T05:33:45.303Z,30.88
2022-10-25T05:36:14.265Z,33.17
2022-10-25T05:38:43.911Z,29.40
2022-10-25T05:41:13.468Z,32.53
2022-10-25T05:43:42.104Z,30.60
2022-10-25T05:46:12.602Z,31.83
2022-10-25T05:48:45.813Z,29.77
2022-10-25T05:51:32.234Z,33.83
2022-10-25T05:54:04.867Z,26.70
2022-10-25T05:56:35.491Z,31.85
2022-10-25T05:59:07.603Z,31.42
2022-10-25T06:01:36.579Z,30.17
2022-10-25T06:04:04.677Z,31.98
2022-10-25T06:06:32.939Z,29.00
2022-10-25T06:09:02.701Z,27.73
2022-10-25T06:11:31.537Z,35.55
2022-10-25T06:13:59.608Z,31.98
2022-10-25T06:16:27.624Z,28.38
2022-10-25T06:18:56.003Z,30.65
2022-10-25T06:21:25.478Z,34.05
2022-10-25T06:23:54.374Z,28.83
2022-10-25T06:26:25.230Z,40.03
2022-10-25T06:28:54.506Z,28.35
2022-10-25T06:31:22.702Z,41.63
2022-10-25T06:33:50.717Z,36.17
2022-10-25T06:36:20.301Z,33.33
2022-10-25T06:38:49.418Z,37.13
2022-10-25T06:41:19.858Z,33.80
2022-10-25T06:43:49.917Z,31.02
2022-10-25T06:46:22.566Z,30.42
2022-10-25T06:48:51.076Z,35.53
2022-10-25T06:51:19.350Z,32.65
2022-10-25T06:53:47.468Z,32.85
2022-10-25T06:56:16.094Z,38.28
2022-10-25T06:58:44.765Z,36.35
2022-10-25T07:01:15.872Z,35.22
2022-10-25T07:03:46.045Z,39.22
2022-10-25T07:06:16.134Z,33.92
2022-10-25T07:08:45.758Z,29.48
2022-10-25T07:11:16.031Z,31.67
2022-10-25T07:13:44.078Z,33.13
2022-10-25T07:16:15.237Z,29.52
2022-10-25T07:18:43.782Z,34.80
2022-10-25T07:21:13.828Z,31.85
2022-10-25T07:23:43.156Z,34.47
2022-10-25T07:26:12.748Z,28.50
2022-10-25T07:28:41.272Z,28.60
2022-10-25T07:31:09.360Z,24.83
2022-10-25T07:33:38.734Z,28.02
2022-10-25T07:36:11.265Z,25.40
2022-10-25T07:38:39.870Z,26.05
2022-10-25T07:41:08.869Z,23.15
2022-10-25T07:43:37.055Z,23.40
2022-10-25T07:46:05.914Z,26.52
2022-10-25T07:48:34.401Z,22.58
2022-10-25T07:51:06.113Z,26.98
2022-10-25T07:53:34.130Z,30.25
2022-10-25T07:56:02.276Z,28.20
2022-10-25T07:58:30.522Z,23.80
2022-10-25T08:01:03.208Z,27.70
2022-10-25T08:03:31.826Z,24.00
2022-10-25T08:06:00.136Z,24.73
2022-10-25T08:08:29.793Z,26.88
2022-10-25T08:10:59.539Z,30.77
2022-10-25T08:13:27.574Z,22.33
2022-10-25T08:15:57.254Z,29.42
2022-10-25T08:18:25.354Z,30.08
2022-10-25T08:21:02.779Z,26.50
2022-10-25T08:23:33.606Z,25.90
2022-10-25T08:26:01.801Z,23.90
2022-10-25T08:28:31.321Z,25.42
2022-10-25T08:31:01.069Z,24.15
2022-10-25T08:33:30.118Z,25.40
2022-10-25T08:36:01.181Z,25.08
2022-10-25T08:38:29.356Z,24.90
2022-10-25T08:41:10.065Z,23.73
2022-10-25T08:44:08.740Z,24.65
2022-10-25T08:46:41.940Z,23.42
2022-10-25T08:49:20.409Z,19.58
2022-10-25T08:51:50.668Z,24.75
2022-10-25T08:54:29.570Z,20.08
2022-10-25T08:57:15.909Z,19.50
2022-10-25T08:59:48.329Z,22.25
2022-10-25T09:02:26.367Z,22.92
2022-10-25T09:04:55.761Z,29.15
2022-10-25T09:07:50.451Z,23.85
2022-10-25T09:10:28.613Z,21.85
2022-10-25T09:13:08.435Z,20.65
2022-10-25T09:15:54.663Z,17.27
2022-10-25T09:18:32.810Z,28.05
2022-10-25T09:21:07.670Z,27.65
2022-10-25T09:23:37.905Z,24.63
2022-10-25T09:26:13.565Z,24.50
2022-10-25T09:28:52.505Z,17.10
2022-10-25T09:31:24.738Z,18.65
2022-10-25T09:34:04.077Z,24.20
2022-10-25T09:36:39.296Z,18.80
2022-10-25T09:39:16.725Z,21.33
2022-10-25T09:41:48.945Z,25.40
2022-10-25T09:44:27.197Z,22.42
2022-10-25T09:46:59.473Z,22.30
2022-10-25T09:49:33.261Z,22.08
2022-10-25T09:52:11.510Z,19.95
2022-10-25T09:54:43.127Z,18.55
2022-10-25T09:57:11.138Z,18.13
2022-10-25T09:59:40.565Z,23.33
2022-10-25T10:02:16.115Z,21.65
2022-10-25T10:04:44.169Z,18.35
2022-10-25T10:07:19.348Z,22.50
2022-10-25T10:09:51.874Z,19.77
2022-10-25T10:12:24.824Z,18.90
2022-10-25T10:14:59.834Z,19.08
2022-10-25T10:17:30.685Z,18.90
2022-10-25T10:20:11.430Z,18.73
2022-10-25T10:22:45.505Z,21.80
2022-10-25T10:25:18.456Z,19.77
2022-10-25T10:27:48.801Z,24.92
2022-10-25T10:30:28.791Z,17.90
2022-10-25T10:33:00.413Z,15.98
2022-10-25T10:35:33.730Z,15.27
2022-10-25T10:38:24.720Z,24.58
2022-10-25T10:40:55.831Z,21.65
2022-10-25T10:43:32.640Z,18.88
2022-10-25T10:46:09.648Z,19.98
2022-10-25T10:48:43.261Z,19.25
2022-10-25T10:51:25.514Z,19.20
2022-10-25T10:54:25.271Z,17.70
2022-10-25T10:57:01.526Z,18.55
2022-10-25T10:59:37.524Z,16.05
2022-10-25T11:02:25.540Z,13.70
2022-10-25T11:04:55.874Z,17.50
2022-10-25T11:07:35.240Z,13.20
2022-10-25T11:10:24.871Z,17.50
2022-10-25T11:13:14.109Z,14.95
2022-10-25T11:16:10.225Z,15.18
2022-10-25T11:18:50.949Z,13.95
2022-10-25T11:21:36.382Z,19.95
2022-10-25T11:24:14.829Z,13.35
2022-10-25T11:26:54.286Z,15.45
2022-10-25T11:29:41.675Z,16.35
2022-10-25T11:32:26.627Z,15.93
2022-10-25T11:35:06.590Z,16.73
2022-10-25T11:37:42.123Z,10.88
2022-10-25T11:40:16.563Z,17.40
2022-10-25T11:42:58.682Z,20.13
2022-10-25T11:45:35.726Z,14.05
2022-10-25T11:48:23.997Z,14.23
2022-10-25T11:51:00.102Z,13.63
2022-10-25T11:53:44.237Z,15.15
2022-10-25T11:56:22.134Z,13.77
2022-10-25T11:58:59.309Z,13.18
2022-10-25T12:01:45.124Z,14.05
2022-10-25T12:04:29.510Z,14.80
2022-10-25T12:07:07.458Z,12.23
2022-10-25T12:09:43.582Z,11.77
2022-10-25T12:12:15.766Z,11.60
2022-10-25T12:14:48.614Z,12.77
2022-10-25T12:17:32.278Z,17.13
2022-10-25T12:20:03.142Z,13.88
2022-10-25T12:22:38.250Z,12.45
2022-10-25T12:25:14.887Z,9.63
2022-10-25T12:27:48.086Z,12.77
2022-10-25T12:30:18.554Z,11.32
2022-10-25T12:32:52.517Z,11.52
2022-10-25T12:35:24.178Z,11.27
2022-10-25T12:37:58.879Z,9.98
2022-10-25T12:40:29.680Z,11.63
2022-10-25T12:43:01.022Z,12.27
2022-10-25T12:45:47.710Z,10.30
2022-10-25T12:48:31.487Z,10.07
2022-10-25T12:51:20.972Z,9.98
2022-10-25T12:54:10.429Z,11.65
2022-10-25T12:56:49.711Z,10.25
2022-10-25T12:59:36.849Z,8.65
2022-10-25T13:02:20.190Z,12.57
2022-10-25T13:05:12.640Z,10.15
2022-10-25T13:07:40.749Z,11.45
2022-10-25T13:10:19.091Z,9.32
2022-10-25T13:13:00.084Z,12.02
2022-10-25T13:15:40.276Z,7.78
2022-10-25T13:18:27.194Z,9.13
2022-10-25T13:20:55.482Z,11.57
2022-10-25T13:24:03.689Z,11.52
2022-10-25T13:27:11.095Z,10.82
2022-10-25T13:30:23.655Z,13.18
2022-10-25T13:33:29.413Z,9.93
2022-10-25T13:36:02.791Z,8.55
2022-10-25T13:38:38.871Z,9.85
2022-10-25T13:41:12.881Z,11.07
2022-10-25T13:44:03.641Z,13.38
2022-10-25T13:46:35.903Z,11.20
2022-10-25T13:49:20.425Z,12.13
2022-10-25T13:51:48.822Z,9.65
2022-10-25T13:54:17.548Z,13.30
2022-10-25T13:56:53.673Z,11.10
2022-10-25T14:00:02.571Z,11.20
2022-10-25T14:03:05.151Z,10.75
2022-10-25T14:06:13.017Z,10.73
2022-10-25T14:08:52.391Z,17.17
2022-10-25T14:11:24.713Z,14.40
2022-10-25T14:13:56.742Z,11.75
2022-10-25T14:16:32.250Z,11.02
2022-10-25T14:19:06.252Z,14.85
2022-10-25T14:21:34.851Z,10.30
2022-10-25T14:24:12.153Z,12.07
2022-10-25T14:26:51.959Z,8.85
2022-10-25T14:29:23.215Z,11.30
2022-10-25T14:31:53.490Z,11.95
2022-10-25T14:34:23.405Z,10.50
2022-10-25T14:36:53.243Z,8.52
2022-10-25T14:39:24.194Z,13.75
2022-10-25T14:41:54.435Z,8.80
2022-10-25T14:44:25.557Z,11.38
2022-10-25T14:46:56.441Z,15.25
2022-10-25T14:49:25.447Z,13.07
2022-10-25T14:51:56.514Z,10.10
2022-10-25T14:54:28.216Z,9.88
2022-10-25T14:56:59.090Z,11.55
2022-10-25T14:59:30.068Z,15.80
2022-10-25T15:02:02.554Z,10.30
2022-10-25T15:04:33.890Z,12.15
2022-10-25T15:07:03.507Z,12.38
2022-10-25T15:09:49.023Z,11.32
2022-10-25T15:12:20.499Z,12.95
2022-10-25T15:14:48.834Z,9.38
2022-10-25T15:17:25.391Z,12.45
2022-10-25T15:20:06.428Z,10.48
2022-10-25T15:22:43.197Z,12.27
2022-10-25T15:25:30.202Z,9.65
2022-10-25T15:28:09.195Z,14.32
2022-10-25T15:30:39.374Z,17.35
2022-10-25T15:33:12.685Z,10.68
2022-10-25T15:35:47.434Z,14.75
2022-10-25T15:38:17.383Z,15.00
2022-10-25T15:40:45.886Z,13.90
2022-10-25T15:43:13.981Z,16.15
2022-10-25T15:45:42.651Z,16.35
2022-10-25T15:48:15.735Z,12.05
2022-10-25T15:50:47.817Z,11.98
2022-10-25T15:53:15.831Z,13.02
2022-10-25T15:55:44.291Z,14.35
2022-10-25T15:58:12.279Z,13.10
2022-10-25T16:00:40.519Z,12.40
2022-10-25T16:03:09.486Z,11.93
2022-10-25T16:05:39.722Z,13.98
2022-10-25T16:08:08.647Z,14.68
2022-10-25T16:10:37.671Z,13.15
2022-10-25T16:13:07.867Z,13.70
2022-10-25T16:15:35.846Z,12.95
2022-10-25T16:18:04.191Z,14.52
2022-10-25T16:20:32.781Z,16.13
2022-10-25T16:23:02.185Z,18.83
2022-10-25T16:25:33.070Z,14.20
2022-10-25T16:28:01.970Z,12.52
2022-10-25T16:30:33.989Z,11.00
2022-10-25T16:33:02.126Z,15.20
2022-10-25T16:35:30.122Z,15.35
2022-10-25T16:37:58.416Z,16.27
2022-10-25T16:40:28.937Z,13.18
2022-10-25T16:42:58.341Z,16.73
2022-10-25T16:45:29.046Z,16.67
2022-10-25T16:47:57.968Z,17.08
2022-10-25T16:50:27.015Z,24.75
2022-10-25T16:52:57.506Z,19.90
2022-10-25T16:55:28.799Z,23.70
2022-10-25T16:57:56.927Z,24.73
2022-10-25T17:00:25.202Z,21.38
2022-10-25T17:02:53.225Z,19.30
2022-10-25T17:05:23.441Z,17.80
2022-10-25T17:07:52.218Z,19.02
2022-10-25T17:10:22.138Z,18.55
2022-10-25T17:12:53.314Z,14.85
2022-10-25T17:15:22.387Z,17.42
2022-10-25T17:17:50.781Z,19.17
2022-10-25T17:20:19.080Z,19.70
2022-10-25T17:22:48.795Z,18.73
2022-10-25T17:25:17.418Z,18.52
2022-10-25T17:27:48.076Z,20.55
2022-10-25T17:30:18.263Z,22.70
2022-10-25T17:32:46.346Z,21.23
2022-10-25T17:35:14.549Z,19.73
2022-10-25T17:37:43.988Z,22.90
2022-10-25T17:40:13.763Z,18.92
2022-10-25T17:42:41.814Z,16.52
2022-10-25T17:45:10.787Z,19.92
2022-10-25T17:47:42.564Z,24.60
2022-10-25T17:50:12.859Z,17.38
2022-10-25T17:52:42.315Z,19.70
2022-10-25T17:55:11.785Z,19.40
2022-10-25T17:57:39.785Z,21.90
2022-10-25T18:00:09.103Z,21.35
2022-10-25T18:02:50.555Z,21.25
2022-10-25T18:05:20.983Z,21.02
2022-10-25T18:07:50.263Z,18.77
2022-10-25T18:10:18.503Z,24.80
2022-10-25T18:12:47.019Z,20.55
2022-10-25T18:15:15.245Z,26.38
2022-10-25T18:17:46.302Z,23.73
2022-10-25T18:20:16.305Z,22.40
2022-10-25T18:22:44.352Z,23.58
2022-10-25T18:25:12.737Z,23.80
2022-10-25T18:27:40.734Z,24.70
2022-10-25T18:30:10.226Z,25.35
2022-10-25T18:32:38.199Z,19.58
2022-10-25T18:35:06.746Z,25.80
2022-10-25T18:37:36.110Z,23.42
2022-10-25T18:40:04.393Z,21.67
2022-10-25T18:42:32.378Z,26.70
2022-10-25T18:45:00.408Z,25.13
2022-10-25T18:47:28.498Z,28.17
2022-10-25T18:49:56.531Z,21.95
2022-10-25T18:52:24.729Z,25.48
2022-10-25T18:54:54.496Z,26.23
2022-10-25T18:57:22.502Z,26.55
2022-10-25T18:59:50.538Z,23.98
2022-10-25T19:02:18.647Z,28.30
2022-10-25T19:04:46.685Z,23.10
2022-10-25T19:07:14.665Z,25.25
2022-10-25T19:09:42.691Z,23.98
2022-10-25T19:12:12.075Z,27.20
2022-10-25T19:14:40.111Z,23.17
2022-10-25T19:17:09.298Z,27.75
2022-10-25T19:19:37.251Z,23.42
2022-10-25T19:22:05.250Z,22.70
2022-10-25T19:24:33.631Z,23.42
2022-10-25T19:27:01.626Z,25.05
2022-10-25T19:29:30.998Z,26.95
2022-10-25T19:31:58.973Z,29.35
2022-10-25T19:34:27.102Z,27.40
2022-10-25T19:36:56.713Z,24.23
2022-10-25T19:39:25.505Z,22.92
2022-10-25T19:41:53.489Z,23.63
2022-10-25T19:44:21.513Z,22.88
2022-10-25T19:46:51.682Z,27.45
2022-10-25T19:49:19.705Z,22.70
2022-10-25T19:51:47.739Z,22.48
2022-10-25T19:54:15.854Z,18.67
2022-10-25T19:56:43.844Z,25.20
2022-10-25T19:59:12.422Z,22.83
2022-10-25T20:01:40.612Z,19.17
2022-10-25T20:04:11.342Z,23.33
2022-10-25T20:06:39.341Z,22.30
2022-10-25T20:09:09.878Z,24.70
2022-10-25T20:11:38.012Z,20.55
2022-10-25T20:14:06.052Z,20.25
2022-10-25T20:16:34.183Z,21.48
2022-10-25T20:19:03.407Z,23.33
2022-10-25T20:21:35.138Z,23.77
2022-10-25T20:24:05.346Z,24.48
2022-10-25T20:26:35.316Z,19.48
2022-10-25T20:29:05.353Z,20.10
2022-10-25T20:31:34.681Z,21.08
2022-10-25T20:34:03.204Z,23.25
2022-10-25T20:36:32.809Z,23.15
2022-10-25T20:39:00.814Z,21.92
2022-10-25T20:41:30.281Z,23.08
2022-10-25T20:44:00.336Z,21.33
2022-10-25T20:46:29.876Z,22.48
2022-10-25T20:48:58.454Z,24.15
2022-10-25T20:51:27.150Z,22.42
2022-10-25T20:53:56.957Z,27.92
2022-10-25T20:56:25.713Z,22.15
2022-10-25T20:58:53.749Z,24.27
2022-10-25T21:01:21.870Z,24.88
2022-10-25T21:03:49.977Z,23.42
2022-10-25T21:06:17.990Z,27.70
2022-10-25T21:08:46.011Z,23.88
2022-10-25T21:11:15.401Z,22.45
2022-10-25T21:13:43.462Z,23.63
2022-10-25T21:16:13.080Z,22.40
2022-10-25T21:18:41.414Z,25.75
2022-10-25T21:21:11.882Z,23.58
2022-10-25T21:23:39.982Z,31.92
2022-10-25T21:26:09.976Z,26.55
2022-10-25T21:28:41.213Z,28.25
2022-10-25T21:31:11.934Z,25.60
2022-10-25T21:33:41.751Z,22.60
2022-10-25T21:36:12.408Z,23.48
2022-10-25T21:38:40.819Z,23.38
2022-10-25T21:41:10.498Z,22.13
2022-10-25T21:43:43.783Z,25.30
2022-10-25T21:46:12.618Z,26.35
2022-10-25T21:48:40.674Z,20.83
2022-10-25T21:51:09.331Z,26.05
2022-10-25T21:53:37.357Z,21.52
2022-10-25T21:56:07.622Z,23.23
2022-10-25T21:58:35.673Z,24.90
2022-10-25T22:01:08.546Z,24.08
2022-10-25T22:03:36.634Z,26.88
2022-10-25T22:06:06.715Z,26.75
2022-10-25T22:08:34.870Z,26.23
2022-10-25T22:11:04.883Z,26.58
2022-10-25T22:13:32.963Z,22.83
2022-10-25T22:16:02.949Z,26.05
2022-10-25T22:18:32.736Z,26.27
2022-10-25T22:21:02.914Z,24.30
2022-10-25T22:23:32.403Z,24.08
2022-10-25T22:26:02.792Z,26.90
2022-10-25T22:28:31.179Z,24.75
2022-10-25T22:31:01.936Z,26.55
2022-10-25T22:33:30.676Z,31.92
2022-10-25T22:38:38.359Z,28.95
2022-10-25T22:41:08.508Z,22.55
2022-10-25T22:43:37.450Z,28.30
2022-10-25T22:46:07.399Z,26.90
2022-10-25T22:48:37.143Z,25.80
2022-10-25T22:51:07.253Z,26.80
2022-10-25T22:53:36.093Z,22.48
2022-10-25T22:56:06.857Z,23.73
2022-10-25T22:58:36.398Z,23.15
2022-10-25T23:01:06.625Z,30.27
2022-10-25T23:03:34.781Z,24.60
2022-10-25T23:06:03.473Z,22.75
2022-10-25T23:08:33.028Z,24.83
2022-10-25T23:11:02.981Z,24.20
2022-10-25T23:13:32.745Z,24.77
2022-10-25T23:16:01.276Z,29.42
2022-10-25T23:18:29.370Z,23.63
2022-10-25T23:20:59.165Z,23.15
2022-10-25T23:23:28.125Z,29.75
2022-10-25T23:26:00.546Z,26.05
2022-10-25T23:28:31.140Z,25.90
2022-10-25T23:31:05.286Z,25.23
2022-10-25T23:33:33.481Z,24.65
2022-10-25T23:36:05.488Z,28.52
2022-10-25T23:38:33.559Z,26.45
2022-10-25T23:41:02.922Z,28.05
2022-10-25T23:43:31.483Z,32.75
2022-10-25T23:45:59.798Z,32.53
2022-10-25T23:48:27.929Z,28.70
2022-10-25T23:50:57.467Z,26.73
2022-10-25T23:53:26.181Z,31.75
2022-10-25T23:55:55.301Z,29.20
2022-10-25T23:58:25.105Z,30.90
